Terminal Aerodrome Forecast
Issued by NWS Norman, OK

Home | Current Version | Previous Version | Text Only | Print | Product List | Glossary On
Versions: 1 2 3 4 5 6 7 8 9 10 11 12 13 14 15 16 17 18 19 20 21 22 23 24 25 26 27 28
000
FTUS44 KOUN 052320
TAFSPS
TAF
KSPS 052320Z 0600/0624 18016G21KT P6SM SCT070
     FM060100 17012KT P6SM FEW250
     FM061100 18012KT P6SM BKN020
     FM061400 19017G26KT P6SM BKN035=

USA.gov is the U.S. government's official web portal to all federal, state and local government web resources and services.